createdAt,value
2022-09-12T00:05:17.546Z,12.90
2022-09-12T00:25:20.830Z,12.77
2022-09-12T00:45:23.537Z,12.91
2022-09-12T01:05:26.165Z,13.07
2022-09-12T01:25:28.659Z,12.89
2022-09-12T01:45:31.339Z,12.80
2022-09-12T02:05:33.935Z,12.64
2022-09-12T02:25:37.737Z,12.65
2022-09-12T02:45:40.384Z,12.82
2022-09-12T03:05:42.952Z,12.31
2022-09-12T03:25:45.556Z,12.40
2022-09-12T03:45:50.570Z,11.87
2022-09-12T04:05:54.093Z,11.50
2022-09-12T04:25:56.829Z,11.64
2022-09-12T04:45:59.741Z,11.54
2022-09-12T05:06:02.198Z,11.46
2022-09-12T05:26:04.839Z,11.96
2022-09-12T05:46:09.926Z,11.95
2022-09-12T06:06:14.930Z,12.76
2022-09-12T06:26:18.589Z,12.58
2022-09-12T06:46:21.185Z,12.51
2022-09-12T07:06:25.292Z,13.09
2022-09-12T07:26:28.490Z,13.18
2022-09-12T07:46:31.490Z,13.40
2022-09-12T08:06:36.950Z,14.05
2022-09-12T08:26:39.465Z,14.40
2022-09-12T08:46:42.196Z,14.67
2022-09-12T09:06:44.863Z,15.10
2022-09-12T09:26:47.385Z,15.33
2022-09-12T09:46:50.050Z,15.50
2022-09-12T10:06:52.743Z,16.86
2022-09-12T10:26:56.970Z,16.60
2022-09-12T10:46:59.830Z,16.48
2022-09-12T11:07:02.857Z,16.71
2022-09-12T11:27:05.329Z,16.72
2022-09-12T11:47:08.182Z,17.44
2022-09-12T12:07:10.712Z,17.18
2022-09-12T12:27:13.435Z,18.06
2022-09-12T12:47:16.190Z,17.15
2022-09-12T13:07:18.871Z,18.64
2022-09-12T13:27:21.599Z,18.75
2022-09-12T13:47:24.831Z,17.62
2022-09-12T14:07:27.708Z,17.72
2022-09-12T14:27:31.310Z,17.59
2022-09-12T14:47:34.011Z,18.01
2022-09-12T15:07:36.615Z,18.59
2022-09-12T15:27:42.018Z,17.92
2022-09-12T15:47:44.587Z,16.90
2022-09-12T16:07:47.706Z,16.44
2022-09-12T16:27:50.202Z,16.38
2022-09-12T16:47:52.908Z,16.16
2022-09-12T17:07:55.818Z,15.50
2022-09-12T17:27:58.506Z,15.01
2022-09-12T17:48:00.981Z,14.58
2022-09-12T18:08:03.685Z,14.68
2022-09-12T18:28:09.322Z,14.99
2022-09-12T18:48:12.209Z,14.96
2022-09-12T19:08:14.672Z,14.56
2022-09-12T19:28:17.369Z,14.28
2022-09-12T19:48:19.822Z,13.80
2022-09-12T20:08:22.477Z,12.75
2022-09-12T20:28:25.188Z,12.12
2022-09-12T20:48:28.330Z,11.94
2022-09-12T21:08:31.265Z,11.84
2022-09-12T21:28:34.818Z,11.41
2022-09-12T21:48:38.480Z,11.11
2022-09-12T22:08:40.947Z,11.32
2022-09-12T22:28:44.109Z,10.87
2022-09-12T22:48:48.007Z,10.71
2022-09-12T23:08:51.878Z,10.45
2022-09-12T23:28:54.685Z,10.57
2022-09-12T23:48:57.365Z,10.26
